Time;durP1;ratioP1;P1;durP2;ratioP2;P2;SDS_P1;SDS_P2;PMS_P1;PMS_P2;Temp;Humidity;BMP_temperature;BMP_pressure;BME280_temperature;BME280_humidity;BME280_pressure;Samples;Min_cycle;Max_cycle;Signal;HPM_P1;HPM_P2
2024/01/19 00:01:38;;;;;;;1.38;0.90;;;;;;;;;;5057011;28;20040;-65
2024/01/19 00:04:04;;;;;;;3.72;3.42;;;;;;;;;;5060814;28;20146;-67
2024/01/19 00:06:30;;;;;;;0.30;0.30;;;;;;;;;;5059283;28;20596;-66
2024/01/19 00:08:57;;;;;;;0.05;0.05;;;;;;;;;;5054701;28;20472;-67
2024/01/19 00:11:23;;;;;;;9.30;3.58;;;;;;;;;;5059054;28;20024;-67
2024/01/19 00:13:49;;;;;;;1.83;1.73;;;;;;;;;;5059717;28;20033;-67
2024/01/19 00:16:15;;;;;;;0.20;0.20;;;;;;;;;;5062947;28;20126;-67
2024/01/19 00:18:41;;;;;;;0.75;0.75;;;;;;;;;;5061135;28;20033;-66
2024/01/19 00:21:07;;;;;;;0.88;0.88;;;;;;;;;;5060267;28;20036;-67
2024/01/19 00:23:33;;;;;;;0.35;0.35;;;;;;;;;;5063453;28;20035;-70
2024/01/19 00:25:59;;;;;;;0.00;0.00;;;;;;;;;;5060659;28;20031;-68
2024/01/19 00:28:25;;;;;;;0.15;0.15;;;;;;;;;;5062190;28;20044;-67
2024/01/19 00:30:51;;;;;;;0.32;0.32;;;;;;;;;;5060449;28;20021;-67
2024/01/19 00:33:17;;;;;;;1.45;1.35;;;;;;;;;;5053390;28;20067;-67
2024/01/19 00:35:43;;;;;;;0.98;0.98;;;;;;;;;;5049989;28;20051;-67
2024/01/19 00:38:09;;;;;;;0.00;0.00;;;;;;;;;;5061955;28;20025;-67
2024/01/19 00:40:35;;;;;;;0.55;0.55;;;;;;;;;;5062445;28;20082;-67
2024/01/19 00:43:00;;;;;;;0.10;0.10;;;;;;;;;;5059515;28;20616;-67
2024/01/19 00:45:26;;;;;;;1.38;0.70;;;;;;;;;;5051578;28;20036;-67
2024/01/19 00:47:52;;;;;;;1.77;0.95;;;;;;;;;;5060394;28;20064;-67
2024/01/19 00:50:19;;;;;;;0.52;0.38;;;;;;;;;;5061891;28;20025;-67
2024/01/19 00:52:45;;;;;;;0.40;0.38;;;;;;;;;;5058043;28;20025;-67
2024/01/19 00:55:11;;;;;;;1.63;1.52;;;;;;;;;;5052792;28;20055;-67
2024/01/19 00:57:37;;;;;;;1.80;1.65;;;;;;;;;;5051675;28;20514;-68
2024/01/19 01:00:04;;;;;;;1.25;1.15;;;;;;;;;;5059931;28;20112;-67
2024/01/19 01:02:30;;;;;;;1.08;0.98;;;;;;;;;;5060149;28;20082;-67
2024/01/19 01:04:56;;;;;;;0.03;0.03;;;;;;;;;;5059264;28;20032;-67
2024/01/19 01:07:22;;;;;;;0.50;0.50;;;;;;;;;;5054713;28;20029;-67
2024/01/19 01:09:48;;;;;;;4.70;2.47;;;;;;;;;;5051950;28;20025;-67
2024/01/19 01:12:14;;;;;;;2.05;0.75;;;;;;;;;;5059681;28;20356;-67
2024/01/19 01:14:40;;;;;;;1.40;1.30;;;;;;;;;;5054930;28;20024;-66
2024/01/19 01:17:06;;;;;;;0.90;0.90;;;;;;;;;;5058906;28;20034;-66
2024/01/19 01:19:32;;;;;;;0.38;0.28;;;;;;;;;;5057149;28;20538;-66
2024/01/19 01:21:58;;;;;;;1.38;1.27;;;;;;;;;;5058409;28;20029;-65
2024/01/19 01:24:24;;;;;;;0.68;0.68;;;;;;;;;;5061696;28;20601;-65
2024/01/19 01:26:50;;;;;;;0.28;0.28;;;;;;;;;;5057645;28;20620;-65
2024/01/19 01:29:16;;;;;;;0.60;0.60;;;;;;;;;;5052574;28;20304;-66
2024/01/19 01:31:43;;;;;;;0.77;0.77;;;;;;;;;;5061357;28;20048;-66
2024/01/19 01:34:09;;;;;;;0.80;0.68;;;;;;;;;;5063731;28;20098;-69
2024/01/19 01:36:35;;;;;;;0.65;0.65;;;;;;;;;;5063060;28;20705;-72
2024/01/19 01:39:02;;;;;;;1.00;1.00;;;;;;;;;;5061042;28;20058;-65
2024/01/19 01:41:31;;;;;;;0.10;0.10;;;;;;;;;;5052572;28;20048;-68
2024/01/19 01:43:57;;;;;;;5.20;2.13;;;;;;;;;;5062768;28;20029;-63
2024/01/19 01:46:24;;;;;;;3.97;3.53;;;;;;;;;;5059681;28;20116;-65
2024/01/19 01:48:50;;;;;;;12.57;5.78;;;;;;;;;;5060470;28;20131;-64
2024/01/19 01:51:16;;;;;;;2.47;2.28;;;;;;;;;;5059030;28;20028;-65
2024/01/19 01:53:42;;;;;;;0.28;0.28;;;;;;;;;;5065858;28;20036;-64
2024/01/19 01:56:09;;;;;;;0.30;0.30;;;;;;;;;;5062661;28;20392;-64
2024/01/19 01:58:35;;;;;;;3.33;1.80;;;;;;;;;;5066736;28;20039;-66
2024/01/19 02:01:02;;;;;;;8.82;3.65;;;;;;;;;;5057796;28;20044;-66
2024/01/19 02:03:29;;;;;;;2.08;1.75;;;;;;;;;;5067400;28;20359;-64
2024/01/19 02:05:55;;;;;;;15.73;4.88;;;;;;;;;;5074663;28;20472;-64
2024/01/19 02:08:21;;;;;;;0.20;0.20;;;;;;;;;;5073324;28;20028;-70
2024/01/19 02:10:47;;;;;;;0.93;0.93;;;;;;;;;;5062538;28;20514;-67
2024/01/19 02:13:13;;;;;;;0.20;0.20;;;;;;;;;;5061688;28;21181;-65
2024/01/19 02:15:39;;;;;;;0.80;0.80;;;;;;;;;;5065215;28;20060;-65
2024/01/19 02:18:05;;;;;;;0.10;0.10;;;;;;;;;;5063818;28;20032;-65
2024/01/19 02:20:31;;;;;;;1.50;1.40;;;;;;;;;;5070871;28;20119;-64
2024/01/19 02:22:57;;;;;;;3.00;1.15;;;;;;;;;;5069537;28;20024;-64
2024/01/19 02:25:23;;;;;;;2.17;1.80;;;;;;;;;;5063679;28;20028;-67
2024/01/19 02:27:49;;;;;;;1.73;1.60;;;;;;;;;;5065792;28;20138;-67
2024/01/19 02:30:15;;;;;;;0.10;0.10;;;;;;;;;;5071628;28;20483;-67
2024/01/19 02:32:41;;;;;;;2.17;0.73;;;;;;;;;;5064426;28;20100;-67
2024/01/19 02:35:08;;;;;;;0.25;0.25;;;;;;;;;;5059755;28;20094;-67
2024/01/19 02:37:34;;;;;;;0.70;0.43;;;;;;;;;;5068465;28;20032;-67
2024/01/19 02:40:00;;;;;;;0.13;0.13;;;;;;;;;;5062154;28;20085;-67
2024/01/19 02:42:26;;;;;;;1.95;1.85;;;;;;;;;;5067117;28;20112;-67
2024/01/19 02:44:52;;;;;;;0.15;0.15;;;;;;;;;;5061375;28;20111;-67
2024/01/19 02:47:18;;;;;;;0.70;0.65;;;;;;;;;;5063852;28;20032;-67
2024/01/19 02:49:44;;;;;;;0.95;0.88;;;;;;;;;;5065260;28;20434;-67
2024/01/19 02:52:10;;;;;;;1.90;1.65;;;;;;;;;;5063888;28;20421;-67
2024/01/19 02:54:36;;;;;;;3.60;2.17;;;;;;;;;;5063350;28;20843;-67
2024/01/19 02:57:02;;;;;;;1.58;1.48;;;;;;;;;;5057260;28;20394;-67
2024/01/19 02:59:29;;;;;;;0.40;0.40;;;;;;;;;;5064774;28;20451;-67
2024/01/19 03:01:55;;;;;;;0.77;0.77;;;;;;;;;;5070770;28;20020;-67
2024/01/19 03:04:20;;;;;;;0.08;0.08;;;;;;;;;;5063199;28;20349;-67
2024/01/19 03:06:46;;;;;;;0.60;0.60;;;;;;;;;;5063988;28;20459;-67
2024/01/19 03:09:12;;;;;;;3.05;1.60;;;;;;;;;;5061551;28;20048;-67
2024/01/19 03:11:38;;;;;;;0.28;0.28;;;;;;;;;;5067305;28;20065;-67
2024/01/19 03:14:04;;;;;;;1.13;1.02;;;;;;;;;;5068706;28;20115;-68
2024/01/19 03:16:30;;;;;;;0.68;0.68;;;;;;;;;;5064266;28;20036;-67
2024/01/19 03:19:00;;;;;;;2.47;2.25;;;;;;;;;;5060453;28;20028;-67
2024/01/19 03:21:26;;;;;;;0.68;0.68;;;;;;;;;;5058979;28;20032;-67
2024/01/19 03:23:52;;;;;;;0.03;0.03;;;;;;;;;;5058791;28;20021;-67
2024/01/19 03:26:18;;;;;;;1.15;1.10;;;;;;;;;;5062200;28;20081;-67
2024/01/19 03:28:44;;;;;;;2.13;2.03;;;;;;;;;;5057761;28;20622;-67
2024/01/19 03:31:10;;;;;;;5.18;3.35;;;;;;;;;;5062901;28;20143;-67
2024/01/19 03:33:36;;;;;;;10.98;3.53;;;;;;;;;;5071660;28;20107;-67
2024/01/19 03:36:02;;;;;;;0.65;0.65;;;;;;;;;;5062716;28;20167;-67
2024/01/19 03:38:29;;;;;;;0.00;0.00;;;;;;;;;;5063900;28;20031;-67
2024/01/19 03:40:55;;;;;;;3.58;3.28;;;;;;;;;;5059534;28;20084;-67
2024/01/19 03:43:21;;;;;;;0.20;0.20;;;;;;;;;;5060572;28;20163;-67
2024/01/19 03:45:47;;;;;;;1.02;0.95;;;;;;;;;;5058941;28;20399;-67
2024/01/19 03:48:13;;;;;;;4.53;0.93;;;;;;;;;;5058702;28;20405;-67
2024/01/19 03:50:39;;;;;;;3.45;3.10;;;;;;;;;;5060677;28;20119;-67
2024/01/19 03:53:05;;;;;;;1.58;0.88;;;;;;;;;;5062872;28;20167;-67
2024/01/19 03:55:31;;;;;;;0.15;0.15;;;;;;;;;;5066993;28;20056;-68
2024/01/19 03:57:57;;;;;;;1.52;1.40;;;;;;;;;;5056804;28;20025;-67
2024/01/19 04:00:23;;;;;;;1.02;0.60;;;;;;;;;;5062206;28;20037;-67
2024/01/19 04:02:49;;;;;;;0.68;0.68;;;;;;;;;;5065181;28;20039;-67
2024/01/19 04:05:15;;;;;;;2.60;1.55;;;;;;;;;;5060470;28;20070;-67
2024/01/19 04:07:40;;;;;;;3.30;2.05;;;;;;;;;;5062817;28;20033;-67
2024/01/19 04:10:07;;;;;;;0.50;0.50;;;;;;;;;;5062128;28;20085;-66
2024/01/19 04:12:33;;;;;;;3.05;2.75;;;;;;;;;;5065687;28;20068;-67
2024/01/19 04:14:59;;;;;;;1.75;1.35;;;;;;;;;;5059583;28;20052;-67
2024/01/19 04:17:25;;;;;;;0.10;0.10;;;;;;;;;;5063852;28;20020;-67
2024/01/19 04:19:51;;;;;;;7.15;2.13;;;;;;;;;;5054741;28;20460;-67
2024/01/19 04:22:16;;;;;;;0.70;0.70;;;;;;;;;;5061408;28;20110;-67
2024/01/19 04:24:42;;;;;;;2.88;2.10;;;;;;;;;;5061869;28;20029;-66
2024/01/19 04:27:09;;;;;;;4.45;2.97;;;;;;;;;;5055310;28;20073;-67
2024/01/19 04:29:35;;;;;;;6.18;2.50;;;;;;;;;;5060570;28;20047;-67
2024/01/19 04:32:01;;;;;;;7.03;3.75;;;;;;;;;;5061378;28;20099;-67
2024/01/19 04:34:27;;;;;;;0.75;0.75;;;;;;;;;;5060903;28;20427;-67
2024/01/19 04:36:53;;;;;;;0.65;0.65;;;;;;;;;;5058483;28;20024;-67
2024/01/19 04:39:19;;;;;;;2.75;1.63;;;;;;;;;;5060712;28;20029;-67
2024/01/19 04:41:45;;;;;;;15.30;3.15;;;;;;;;;;5058993;28;20036;-67
2024/01/19 04:44:11;;;;;;;0.75;0.75;;;;;;;;;;5056818;28;20494;-66
2024/01/19 04:46:37;;;;;;;1.65;1.17;;;;;;;;;;5060582;28;20090;-67
2024/01/19 04:49:03;;;;;;;0.10;0.10;;;;;;;;;;5056405;28;20067;-67
2024/01/19 04:51:29;;;;;;;7.82;1.55;;;;;;;;;;5061287;28;20585;-67
2024/01/19 04:53:58;;;;;;;7.15;0.85;;;;;;;;;;5060410;28;20024;-68
2024/01/19 04:56:24;;;;;;;4.97;2.35;;;;;;;;;;5070609;28;20580;-67
2024/01/19 04:58:50;;;;;;;1.55;1.45;;;;;;;;;;5062957;28;20030;-67
2024/01/19 05:01:17;;;;;;;0.30;0.30;;;;;;;;;;5059882;28;20072;-67
2024/01/19 05:03:43;;;;;;;0.68;0.65;;;;;;;;;;5063996;28;20028;-67
2024/01/19 05:06:09;;;;;;;3.30;2.20;;;;;;;;;;5062074;28;20028;-67
2024/01/19 05:08:35;;;;;;;25.38;1.90;;;;;;;;;;5061230;28;20036;-66
2024/01/19 05:11:01;;;;;;;3.72;2.05;;;;;;;;;;5060121;28;20017;-67
2024/01/19 05:13:27;;;;;;;5.18;2.45;;;;;;;;;;5066789;28;20097;-67
2024/01/19 05:15:53;;;;;;;2.35;1.98;;;;;;;;;;5058727;28;20428;-67
2024/01/19 05:18:21;;;;;;;2.83;2.00;;;;;;;;;;5058670;28;20480;-67
2024/01/19 05:20:46;;;;;;;2.47;0.80;;;;;;;;;;5057249;28;20123;-67
2024/01/19 05:23:13;;;;;;;0.10;0.10;;;;;;;;;;5051380;28;20024;-66
2024/01/19 05:25:38;;;;;;;9.18;4.43;;;;;;;;;;5058263;28;20110;-67
2024/01/19 05:28:04;;;;;;;4.93;2.20;;;;;;;;;;5060036;28;20041;-67
2024/01/19 05:30:30;;;;;;;0.35;0.35;;;;;;;;;;5065854;28;20115;-67
2024/01/19 05:32:56;;;;;;;1.17;1.08;;;;;;;;;;5060107;28;20048;-67
2024/01/19 05:35:22;;;;;;;0.05;0.05;;;;;;;;;;5064330;28;20383;-67
2024/01/19 05:37:48;;;;;;;0.98;0.98;;;;;;;;;;5062593;28;20031;-67
2024/01/19 05:40:14;;;;;;;1.85;1.30;;;;;;;;;;5065189;28;20020;-68
2024/01/19 05:42:40;;;;;;;0.82;0.73;;;;;;;;;;5060412;28;20048;-67
2024/01/19 05:45:07;;;;;;;0.95;0.95;;;;;;;;;;5062834;28;20024;-67
2024/01/19 05:47:33;;;;;;;1.42;1.27;;;;;;;;;;5065535;28;20694;-67
2024/01/19 05:49:58;;;;;;;0.55;0.55;;;;;;;;;;5064589;28;20033;-67
2024/01/19 05:52:24;;;;;;;0.10;0.10;;;;;;;;;;5070226;28;20543;-67
2024/01/19 05:54:50;;;;;;;24.55;2.45;;;;;;;;;;5060917;28;20028;-67
2024/01/19 05:57:16;;;;;;;1.27;0.55;;;;;;;;;;5065016;28;20029;-65
2024/01/19 05:59:42;;;;;;;2.72;2.40;;;;;;;;;;5070589;28;20048;-63
2024/01/19 06:02:08;;;;;;;0.32;0.32;;;;;;;;;;5065683;28;20052;-63
2024/01/19 06:04:37;;;;;;;1.70;1.58;;;;;;;;;;5058667;28;20491;-64
2024/01/19 06:07:03;;;;;;;0.60;0.60;;;;;;;;;;5059767;28;20021;-63
2024/01/19 06:09:29;;;;;;;0.47;0.47;;;;;;;;;;5063305;28;20037;-64
2024/01/19 06:11:55;;;;;;;2.10;1.20;;;;;;;;;;5066081;28;20055;-63
2024/01/19 06:14:21;;;;;;;2.50;1.75;;;;;;;;;;5058031;28;20068;-64
2024/01/19 06:16:47;;;;;;;3.70;3.08;;;;;;;;;;5061343;28;20082;-63
2024/01/19 06:19:13;;;;;;;1.65;1.27;;;;;;;;;;5060047;28;20399;-66
2024/01/19 06:21:39;;;;;;;0.08;0.03;;;;;;;;;;5055168;28;20040;-63
2024/01/19 06:24:05;;;;;;;0.30;0.30;;;;;;;;;;5061482;28;20056;-64
2024/01/19 06:26:32;;;;;;;0.98;0.98;;;;;;;;;;5065103;28;20446;-63
2024/01/19 06:28:59;;;;;;;9.80;1.88;;;;;;;;;;5061977;28;20039;-64
2024/01/19 06:31:25;;;;;;;0.70;0.70;;;;;;;;;;5061679;28;20036;-64
2024/01/19 06:33:51;;;;;;;0.57;0.57;;;;;;;;;;5061932;28;20028;-64
2024/01/19 06:36:17;;;;;;;2.97;2.67;;;;;;;;;;5065798;28;20094;-64
2024/01/19 06:38:43;;;;;;;3.90;1.67;;;;;;;;;;5066667;28;20028;-64
2024/01/19 06:41:09;;;;;;;3.67;1.23;;;;;;;;;;5060342;28;20054;-64
2024/01/19 06:43:35;;;;;;;1.13;1.02;;;;;;;;;;5060159;28;20308;-63
2024/01/19 06:46:01;;;;;;;1.20;1.10;;;;;;;;;;5059574;28;20059;-63
2024/01/19 06:48:26;;;;;;;2.63;1.25;;;;;;;;;;5058895;28;20143;-63
2024/01/19 06:50:52;;;;;;;2.58;2.42;;;;;;;;;;5059501;28;20535;-65
2024/01/19 06:53:18;;;;;;;1.55;0.95;;;;;;;;;;5059834;28;20039;-63
2024/01/19 06:55:44;;;;;;;1.13;1.02;;;;;;;;;;5060044;28;20036;-65
2024/01/19 06:58:10;;;;;;;2.80;2.33;;;;;;;;;;5063734;28;20032;-64
2024/01/19 07:00:36;;;;;;;1.40;1.23;;;;;;;;;;5063924;28;20021;-63
2024/01/19 07:03:02;;;;;;;0.00;0.00;;;;;;;;;;5048458;28;20110;-63
2024/01/19 07:05:28;;;;;;;0.50;0.50;;;;;;;;;;5057647;28;20033;-64
2024/01/19 07:07:54;;;;;;;2.22;1.92;;;;;;;;;;5059722;28;20064;-64
2024/01/19 07:10:21;;;;;;;8.88;1.55;;;;;;;;;;5055549;28;20067;-63
2024/01/19 07:12:47;;;;;;;3.50;1.55;;;;;;;;;;5061225;28;20637;-65
2024/01/19 07:15:13;;;;;;;2.50;1.42;;;;;;;;;;5068666;28;20074;-64
2024/01/19 07:17:39;;;;;;;0.55;0.55;;;;;;;;;;5060022;28;20535;-65
2024/01/19 07:20:05;;;;;;;0.00;0.00;;;;;;;;;;5068265;28;20040;-62
2024/01/19 07:22:31;;;;;;;4.50;2.45;;;;;;;;;;5061726;28;20118;-63
2024/01/19 07:24:57;;;;;;;0.00;0.00;;;;;;;;;;5063384;28;20086;-65
2024/01/19 07:27:23;;;;;;;4.13;1.23;;;;;;;;;;5061921;28;20025;-63
2024/01/19 07:29:49;;;;;;;0.10;0.10;;;;;;;;;;5050860;28;20106;-64
2024/01/19 07:32:15;;;;;;;1.00;0.50;;;;;;;;;;5060550;28;20056;-63
2024/01/19 07:34:41;;;;;;;0.00;0.00;;;;;;;;;;5064749;28;20038;-65
2024/01/19 07:37:07;;;;;;;1.15;1.15;;;;;;;;;;5063805;28;20021;-63
2024/01/19 07:39:33;;;;;;;0.00;0.00;;;;;;;;;;5066386;28;20178;-63
2024/01/19 07:42:00;;;;;;;0.00;0.00;;;;;;;;;;5063907;28;20728;-63
2024/01/19 07:44:26;;;;;;;0.00;0.00;;;;;;;;;;5062740;28;20528;-63
2024/01/19 07:46:52;;;;;;;0.00;0.00;;;;;;;;;;5063889;28;20024;-63
2024/01/19 07:49:21;;;;;;;0.00;0.00;;;;;;;;;;5056983;28;20122;-63
2024/01/19 07:51:48;;;;;;;0.00;0.00;;;;;;;;;;5057032;28;20490;-63
2024/01/19 07:54:14;;;;;;;0.00;0.00;;;;;;;;;;5059978;28;20025;-64
2024/01/19 07:56:40;;;;;;;0.00;0.00;;;;;;;;;;5060481;28;20062;-64
2024/01/19 07:59:07;;;;;;;0.00;0.00;;;;;;;;;;5061576;28;20035;-64
2024/01/19 08:01:33;;;;;;;0.00;0.00;;;;;;;;;;5059988;28;20480;-63
2024/01/19 08:03:59;;;;;;;0.00;0.00;;;;;;;;;;5063470;28;20034;-63
2024/01/19 08:06:25;;;;;;;0.00;0.00;;;;;;;;;;5057703;28;20534;-63
2024/01/19 08:08:50;;;;;;;0.00;0.00;;;;;;;;;;5055125;28;20606;-64
2024/01/19 08:11:16;;;;;;;0.00;0.00;;;;;;;;;;5064279;28;20519;-63
2024/01/19 08:13:42;;;;;;;0.00;0.00;;;;;;;;;;5040320;28;20588;-64
2024/01/19 08:16:08;;;;;;;0.00;0.00;;;;;;;;;;5038822;28;20066;-66
2024/01/19 08:18:34;;;;;;;0.00;0.00;;;;;;;;;;5060133;28;20131;-67
2024/01/19 08:21:01;;;;;;;0.00;0.00;;;;;;;;;;5045363;28;20021;-66
2024/01/19 08:23:27;;;;;;;0.00;0.00;;;;;;;;;;5053264;28;20028;-66
2024/01/19 08:25:53;;;;;;;0.00;0.00;;;;;;;;;;5050774;28;20328;-67
2024/01/19 08:28:19;;;;;;;0.00;0.00;;;;;;;;;;5053020;28;20032;-66
2024/01/19 08:30:45;;;;;;;0.00;0.00;;;;;;;;;;5057161;28;20207;-66
2024/01/19 08:33:12;;;;;;;0.00;0.00;;;;;;;;;;5050766;28;20074;-67
2024/01/19 08:35:38;;;;;;;0.00;0.00;;;;;;;;;;5050598;28;20208;-67
2024/01/19 08:38:04;;;;;;;0.00;0.00;;;;;;;;;;5059722;28;20044;-67
2024/01/19 08:40:30;;;;;;;0.00;0.00;;;;;;;;;;5059567;28;20076;-67
2024/01/19 08:42:57;;;;;;;0.00;0.00;;;;;;;;;;5058928;28;20202;-66
2024/01/19 08:45:23;;;;;;;0.00;0.00;;;;;;;;;;5058993;28;20450;-67
2024/01/19 08:47:50;;;;;;;0.00;0.00;;;;;;;;;;5062602;28;20114;-67
2024/01/19 08:50:16;;;;;;;0.00;0.00;;;;;;;;;;5060320;28;20021;-67
2024/01/19 08:52:42;;;;;;;0.00;0.00;;;;;;;;;;5062970;28;20122;-67
2024/01/19 08:55:08;;;;;;;0.00;0.00;;;;;;;;;;5058976;28;20388;-69
2024/01/19 08:57:35;;;;;;;0.00;0.00;;;;;;;;;;5058578;28;20123;-67
2024/01/19 09:00:00;;;;;;;0.00;0.00;;;;;;;;;;5059717;28;20101;-67
2024/01/19 09:02:26;;;;;;;0.00;0.00;;;;;;;;;;5062629;28;20448;-67
2024/01/19 09:04:52;;;;;;;0.00;0.00;;;;;;;;;;5058654;28;20036;-67
2024/01/19 09:07:19;;;;;;;0.00;0.00;;;;;;;;;;5062461;28;20021;-68
2024/01/19 09:09:44;;;;;;;0.00;0.00;;;;;;;;;;5066877;28;20119;-68
2024/01/19 09:12:10;;;;;;;0.00;0.00;;;;;;;;;;5060634;28;20538;-67
2024/01/19 09:14:36;;;;;;;0.00;0.00;;;;;;;;;;5060828;28;20674;-67
2024/01/19 09:17:02;;;;;;;0.00;0.00;;;;;;;;;;5061496;28;20012;-68
2024/01/19 09:19:28;;;;;;;0.00;0.00;;;;;;;;;;5054983;28;20064;-67
2024/01/19 09:21:54;;;;;;;0.00;0.00;;;;;;;;;;5053486;28;20427;-67
2024/01/19 09:24:21;;;;;;;0.00;0.00;;;;;;;;;;5059948;28;20031;-67
2024/01/19 09:26:46;;;;;;;0.00;0.00;;;;;;;;;;5061499;28;20166;-65
2024/01/19 09:29:13;;;;;;;0.00;0.00;;;;;;;;;;5057075;28;20133;-66
2024/01/19 09:31:45;;;;;;;0.00;0.00;;;;;;;;;;5067629;28;20028;-64
2024/01/19 09:34:12;;;;;;;0.00;0.00;;;;;;;;;;5061218;28;20468;-65
2024/01/19 09:36:38;;;;;;;0.00;0.00;;;;;;;;;;5060527;28;20089;-65
2024/01/19 09:39:05;;;;;;;0.00;0.00;;;;;;;;;;5054553;28;20037;-64
2024/01/19 09:41:44;;;;;;;0.00;0.00;;;;;;;;;;5058243;28;20040;-65
2024/01/19 09:44:11;;;;;;;0.00;0.00;;;;;;;;;;5061028;28;20025;-66
2024/01/19 09:46:40;;;;;;;0.00;0.00;;;;;;;;;;5060591;28;20105;-64
2024/01/19 09:49:29;;;;;;;0.00;0.00;;;;;;;;;;5063981;28;20086;-65
2024/01/19 09:52:14;;;;;;;0.00;0.00;;;;;;;;;;5030084;28;20052;-64
2024/01/19 09:54:40;;;;;;;0.00;0.00;;;;;;;;;;5059171;28;20479;-64
2024/01/19 09:57:06;;;;;;;0.00;0.00;;;;;;;;;;5064143;28;20075;-66
2024/01/19 09:59:33;;;;;;;0.00;0.00;;;;;;;;;;5079428;28;20127;-66
2024/01/19 10:01:59;;;;;;;0.00;0.00;;;;;;;;;;5081972;28;20036;-66
2024/01/19 10:04:26;;;;;;;0.00;0.00;;;;;;;;;;5079703;28;20097;-66
2024/01/19 10:06:52;;;;;;;0.00;0.00;;;;;;;;;;5080439;28;20044;-66
2024/01/19 10:09:19;;;;;;;0.00;0.00;;;;;;;;;;5079678;28;20055;-64
2024/01/19 10:11:46;;;;;;;0.00;0.00;;;;;;;;;;5080109;28;20093;-65
2024/01/19 10:14:13;;;;;;;0.00;0.00;;;;;;;;;;5084415;28;20058;-66
2024/01/19 10:16:39;;;;;;;0.00;0.00;;;;;;;;;;5082359;28;20087;-66
2024/01/19 10:19:08;;;;;;;0.00;0.00;;;;;;;;;;5083943;28;20036;-66
2024/01/19 10:21:34;;;;;;;0.00;0.00;;;;;;;;;;5081398;28;20038;-65
2024/01/19 10:24:19;;;;;;;0.00;0.00;;;;;;;;;;5078995;28;20040;-66
2024/01/19 10:26:58;;;;;;;0.00;0.00;;;;;;;;;;5057447;28;20036;-66
2024/01/19 10:29:24;;;;;;;0.00;0.00;;;;;;;;;;5059913;28;20033;-64
2024/01/19 10:31:52;;;;;;;0.00;0.00;;;;;;;;;;5062171;28;20137;-64
2024/01/19 10:34:22;;;;;;;0.00;0.00;;;;;;;;;;5060935;28;20377;-64
2024/01/19 10:36:48;;;;;;;0.00;0.00;;;;;;;;;;5067941;28;20040;-68
2024/01/19 10:39:25;;;;;;;0.00;0.00;;;;;;;;;;5063732;28;20504;-67
2024/01/19 10:41:51;;;;;;;0.00;0.00;;;;;;;;;;5069994;28;20459;-67
2024/01/19 10:44:19;;;;;;;0.00;0.00;;;;;;;;;;5062703;28;20459;-68
2024/01/19 10:46:45;;;;;;;0.00;0.00;;;;;;;;;;5064220;28;20017;-67
2024/01/19 10:49:12;;;;;;;0.00;0.00;;;;;;;;;;5064069;28;20468;-67
2024/01/19 10:51:39;;;;;;;0.00;0.00;;;;;;;;;;5064559;28;20020;-68
2024/01/19 10:54:05;;;;;;;0.00;0.00;;;;;;;;;;5058883;28;20036;-67
2024/01/19 10:56:31;;;;;;;0.00;0.00;;;;;;;;;;5061322;28;20350;-67
2024/01/19 10:59:10;;;;;;;0.00;0.00;;;;;;;;;;5061760;28;20024;-68
2024/01/19 11:01:36;;;;;;;0.00;0.00;;;;;;;;;;5064299;28;20460;-68
2024/01/19 11:04:02;;;;;;;0.00;0.00;;;;;;;;;;5059343;28;20310;-68
2024/01/19 11:06:29;;;;;;;0.00;0.00;;;;;;;;;;5056868;28;20167;-68
2024/01/19 11:08:55;;;;;;;0.00;0.00;;;;;;;;;;5062408;28;20044;-68
2024/01/19 11:11:21;;;;;;;0.00;0.00;;;;;;;;;;5061277;28;20035;-68
2024/01/19 11:13:51;;;;;;;0.00;0.00;;;;;;;;;;5062847;28;20029;-69
2024/01/19 11:16:21;;;;;;;0.00;0.00;;;;;;;;;;5060437;28;20059;-68
2024/01/19 11:18:47;;;;;;;0.00;0.00;;;;;;;;;;5063134;28;21167;-69
2024/01/19 11:21:14;;;;;;;0.00;0.00;;;;;;;;;;5060815;28;20120;-69
2024/01/19 11:23:41;;;;;;;0.00;0.00;;;;;;;;;;5068524;28;20058;-69
2024/01/19 11:26:10;;;;;;;0.00;0.00;;;;;;;;;;5061745;28;20109;-68
2024/01/19 11:28:39;;;;;;;0.00;0.00;;;;;;;;;;5059507;28;20036;-69
2024/01/19 11:31:13;;;;;;;0.00;0.00;;;;;;;;;;5062440;28;20048;-69
2024/01/19 11:33:39;;;;;;;0.00;0.00;;;;;;;;;;5061027;28;20056;-69
2024/01/19 11:36:05;;;;;;;0.00;0.00;;;;;;;;;;5064807;28;20148;-69
2024/01/19 11:38:37;;;;;;;0.00;0.00;;;;;;;;;;5063915;28;20028;-69
2024/01/19 11:41:03;;;;;;;0.00;0.00;;;;;;;;;;5061053;28;20047;-70
2024/01/19 11:43:36;;;;;;;0.00;0.00;;;;;;;;;;5060579;28;20032;-69
2024/01/19 11:46:02;;;;;;;;;;;;;;;;;;5059140;28;20016;-69
2024/01/19 11:48:38;;;;;;;0.00;0.00;;;;;;;;;;5059270;28;20394;-65
2024/01/19 11:51:04;;;;;;;0.00;0.00;;;;;;;;;;5060341;28;20107;-67
2024/01/19 11:53:50;;;;;;;0.00;0.00;;;;;;;;;;5067604;28;20154;-66
2024/01/19 11:56:22;;;;;;;0.00;0.00;;;;;;;;;;5062373;28;20085;-67
2024/01/19 11:58:48;;;;;;;0.00;0.00;;;;;;;;;;5060345;28;20032;-66
2024/01/19 12:01:14;;;;;;;0.00;0.00;;;;;;;;;;5059758;28;20060;-66
2024/01/19 12:03:41;;;;;;;0.00;0.00;;;;;;;;;;5057132;28;20423;-66
2024/01/19 12:06:07;;;;;;;0.00;0.00;;;;;;;;;;5053643;28;20484;-65
2024/01/19 12:08:33;;;;;;;0.00;0.00;;;;;;;;;;5060069;28;20105;-66
2024/01/19 12:11:04;;;;;;;0.00;0.00;;;;;;;;;;5057692;28;20033;-68
2024/01/19 12:13:34;;;;;;;0.00;0.00;;;;;;;;;;5059765;28;20017;-66
2024/01/19 12:16:01;;;;;;;0.00;0.00;;;;;;;;;;5058814;28;20107;-66
2024/01/19 12:18:27;;;;;;;0.00;0.00;;;;;;;;;;5060877;28;20772;-66
2024/01/19 12:20:54;;;;;;;0.00;0.00;;;;;;;;;;5067288;28;20089;-68
2024/01/19 12:23:21;;;;;;;0.00;0.00;;;;;;;;;;5066904;28;20476;-66
2024/01/19 12:25:47;;;;;;;0.00;0.00;;;;;;;;;;5061379;28;20468;-68
2024/01/19 12:28:15;;;;;;;0.00;0.00;;;;;;;;;;5058648;28;20050;-66
2024/01/19 12:30:42;;;;;;;0.00;0.00;;;;;;;;;;5059073;28;20541;-68
2024/01/19 12:33:15;;;;;;;0.00;0.00;;;;;;;;;;5054189;28;20029;-67
2024/01/19 12:35:41;;;;;;;;;;;;;;;;;;5055311;28;20067;-67
2024/01/19 12:38:10;;;;;;;0.00;0.00;;;;;;;;;;5058783;28;19920;-66
2024/01/19 12:40:40;;;;;;;0.00;0.00;;;;;;;;;;5056391;28;20025;-68
2024/01/19 12:43:06;;;;;;;0.00;0.00;;;;;;;;;;5055383;28;20028;-66
2024/01/19 12:45:34;;;;;;;0.00;0.00;;;;;;;;;;5055810;28;20384;-68
2024/01/19 12:48:00;;;;;;;0.00;0.00;;;;;;;;;;5059722;28;20131;-67
2024/01/19 12:50:29;;;;;;;0.00;0.00;;;;;;;;;;5057104;28;20120;-68
2024/01/19 12:52:55;;;;;;;0.00;0.00;;;;;;;;;;5073034;28;20162;-68
2024/01/19 12:55:31;;;;;;;0.00;0.00;;;;;;;;;;5052406;28;20349;-66
2024/01/19 12:57:57;;;;;;;0.00;0.00;;;;;;;;;;5057074;28;20032;-69
2024/01/19 13:00:27;;;;;;;0.00;0.00;;;;;;;;;;5064145;28;20460;-70
2024/01/19 13:03:00;;;;;;;0.00;0.00;;;;;;;;;;5061247;28;20127;-69
2024/01/19 13:05:28;;;;;;;0.00;0.00;;;;;;;;;;5058667;28;20063;-69
2024/01/19 13:08:06;;;;;;;0.00;0.00;;;;;;;;;;5056303;28;20457;-69
2024/01/19 13:10:32;;;;;;;0.00;0.00;;;;;;;;;;5063385;28;20031;-69
2024/01/19 13:13:27;;;;;;;0.00;0.00;;;;;;;;;;5058584;28;20047;-69
2024/01/19 13:15:53;;;;;;;0.00;0.00;;;;;;;;;;5044850;28;20075;-69
2024/01/19 13:18:22;;;;;;;0.00;0.00;;;;;;;;;;5057894;28;20090;-69
2024/01/19 13:20:48;;;;;;;0.00;0.00;;;;;;;;;;5054879;28;20025;-69
2024/01/19 13:23:14;;;;;;;0.00;0.00;;;;;;;;;;5057233;28;20031;-68
2024/01/19 13:25:40;;;;;;;0.00;0.00;;;;;;;;;;5055135;28;20048;-69
2024/01/19 13:28:06;;;;;;;0.00;0.00;;;;;;;;;;5065336;28;20036;-69
2024/01/19 13:30:32;;;;;;;0.00;0.00;;;;;;;;;;5061846;28;20120;-69
2024/01/19 13:33:02;;;;;;;0.00;0.00;;;;;;;;;;5056724;28;20038;-70
2024/01/19 13:35:31;;;;;;;0.00;0.00;;;;;;;;;;5056921;28;20120;-69
2024/01/19 13:37:58;;;;;;;0.00;0.00;;;;;;;;;;5058550;28;20024;-69
2024/01/19 13:40:24;;;;;;;0.00;0.00;;;;;;;;;;5059683;28;20451;-69
2024/01/19 13:42:50;;;;;;;0.00;0.00;;;;;;;;;;5065982;28;20033;-69
2024/01/19 13:45:16;;;;;;;0.00;0.00;;;;;;;;;;5054960;28;20025;-69
2024/01/19 13:47:42;;;;;;;0.00;0.00;;;;;;;;;;5053551;28;20025;-69
2024/01/19 13:50:08;;;;;;;0.00;0.00;;;;;;;;;;5058224;28;20062;-69
2024/01/19 13:52:35;;;;;;;0.00;0.00;;;;;;;;;;5058840;28;20049;-69
2024/01/19 13:55:01;;;;;;;0.00;0.00;;;;;;;;;;5062271;28;20115;-69
2024/01/19 13:57:27;;;;;;;0.00;0.00;;;;;;;;;;5060649;28;20032;-69
2024/01/19 13:59:53;;;;;;;0.00;0.00;;;;;;;;;;5065307;28;20043;-69
2024/01/19 14:02:22;;;;;;;0.00;0.00;;;;;;;;;;5063822;28;20067;-69
2024/01/19 14:04:48;;;;;;;0.00;0.00;;;;;;;;;;5060156;28;20047;-69
2024/01/19 14:07:17;;;;;;;0.00;0.00;;;;;;;;;;5062854;28;20028;-68
2024/01/19 14:09:44;;;;;;;0.00;0.00;;;;;;;;;;5060039;28;20373;-66
2024/01/19 14:12:10;;;;;;;0.00;0.00;;;;;;;;;;5063847;28;20357;-66
2024/01/19 14:14:37;;;;;;;0.00;0.00;;;;;;;;;;5063904;28;20029;-66
2024/01/19 14:17:03;;;;;;;0.00;0.00;;;;;;;;;;5057387;28;20021;-66
2024/01/19 14:19:29;;;;;;;0.00;0.00;;;;;;;;;;5060153;28;21836;-66
2024/01/19 14:21:55;;;;;;;0.00;0.00;;;;;;;;;;5061990;28;20048;-67
2024/01/19 14:24:21;;;;;;;0.00;0.00;;;;;;;;;;5066800;28;20044;-67
2024/01/19 14:26:47;;;;;;;0.00;0.00;;;;;;;;;;5057852;28;20027;-66
2024/01/19 14:29:13;;;;;;;0.00;0.00;;;;;;;;;;5062229;28;20055;-68
2024/01/19 14:31:40;;;;;;;0.00;0.00;;;;;;;;;;5062353;28;20126;-67
2024/01/19 14:34:06;;;;;;;0.00;0.00;;;;;;;;;;5063952;28;20064;-68
2024/01/19 14:36:31;;;;;;;0.00;0.00;;;;;;;;;;5065275;28;20063;-67
2024/01/19 14:38:57;;;;;;;0.00;0.00;;;;;;;;;;5064053;28;20025;-68
2024/01/19 14:41:23;;;;;;;0.00;0.00;;;;;;;;;;5064574;28;20038;-66